sensor_id;sensor_type;location;lat;lon;timestamp;P1;durP1;ratioP1;P2;durP2;ratioP2
27800;SDS011;15181;49.112;11.930;2022-07-05T00:00:52;7.60;;;7.00;;
27800;SDS011;15181;49.112;11.930;2022-07-05T00:03:19;7.50;;;6.80;;
27800;SDS011;15181;49.112;11.930;2022-07-05T00:05:46;7.53;;;6.80;;
27800;SDS011;15181;49.112;11.930;2022-07-05T00:08:13;7.57;;;6.97;;
27800;SDS011;15181;49.112;11.930;2022-07-05T00:10:40;7.72;;;6.90;;
27800;SDS011;15181;49.112;11.930;2022-07-05T00:13:07;7.63;;;7.10;;
27800;SDS011;15181;49.112;11.930;2022-07-05T00:15:34;10.27;;;7.03;;
27800;SDS011;15181;49.112;11.930;2022-07-05T00:18:03;7.68;;;6.97;;
27800;SDS011;15181;49.112;11.930;2022-07-05T00:20:30;7.43;;;6.88;;
27800;SDS011;15181;49.112;11.930;2022-07-05T00:22:57;7.97;;;7.38;;
27800;SDS011;15181;49.112;11.930;2022-07-05T00:25:24;7.70;;;7.20;;
27800;SDS011;15181;49.112;11.930;2022-07-05T00:27:51;7.93;;;7.25;;
27800;SDS011;15181;49.112;11.930;2022-07-05T00:30:18;7.85;;;7.15;;
27800;SDS011;15181;49.112;11.930;2022-07-05T00:32:45;7.40;;;6.80;;
27800;SDS011;15181;49.112;11.930;2022-07-05T00:35:13;8.82;;;6.75;;
27800;SDS011;15181;49.112;11.930;2022-07-05T00:37:40;7.30;;;6.80;;
27800;SDS011;15181;49.112;11.930;2022-07-05T00:40:07;7.60;;;7.00;;
27800;SDS011;15181;49.112;11.930;2022-07-05T00:42:34;7.22;;;6.72;;
27800;SDS011;15181;49.112;11.930;2022-07-05T00:45:02;7.18;;;6.68;;
27800;SDS011;15181;49.112;11.930;2022-07-05T00:47:30;7.88;;;7.28;;
27800;SDS011;15181;49.112;11.930;2022-07-05T00:49:57;7.78;;;7.18;;
27800;SDS011;15181;49.112;11.930;2022-07-05T00:52:25;7.10;;;6.60;;
27800;SDS011;15181;49.112;11.930;2022-07-05T00:54:52;7.60;;;7.00;;
27800;SDS011;15181;49.112;11.930;2022-07-05T00:57:19;7.60;;;7.00;;
27800;SDS011;15181;49.112;11.930;2022-07-05T00:59:47;7.50;;;6.88;;
27800;SDS011;15181;49.112;11.930;2022-07-05T01:02:14;7.40;;;6.70;;
27800;SDS011;15181;49.112;11.930;2022-07-05T01:04:42;7.32;;;6.72;;
27800;SDS011;15181;49.112;11.930;2022-07-05T01:07:08;7.18;;;6.68;;
27800;SDS011;15181;49.112;11.930;2022-07-05T01:09:37;7.70;;;7.10;;
27800;SDS011;15181;49.112;11.930;2022-07-05T01:12:04;7.60;;;6.88;;
27800;SDS011;15181;49.112;11.930;2022-07-05T01:14:31;7.45;;;6.95;;
27800;SDS011;15181;49.112;11.930;2022-07-05T01:16:59;7.07;;;6.50;;
27800;SDS011;15181;49.112;11.930;2022-07-05T01:19:25;7.30;;;6.30;;
27800;SDS011;15181;49.112;11.930;2022-07-05T01:21:52;6.90;;;6.30;;
27800;SDS011;15181;49.112;11.930;2022-07-05T01:24:21;8.32;;;6.40;;
27800;SDS011;15181;49.112;11.930;2022-07-05T01:26:49;7.25;;;6.75;;
27800;SDS011;15181;49.112;11.930;2022-07-05T01:29:16;7.68;;;6.90;;
27800;SDS011;15181;49.112;11.930;2022-07-05T01:31:44;7.07;;;6.57;;
27800;SDS011;15181;49.112;11.930;2022-07-05T01:34:11;7.07;;;6.57;;
27800;SDS011;15181;49.112;11.930;2022-07-05T01:36:38;7.20;;;6.60;;
27800;SDS011;15181;49.112;11.930;2022-07-05T01:39:06;7.13;;;6.53;;
27800;SDS011;15181;49.112;11.930;2022-07-05T01:41:35;6.82;;;6.22;;
27800;SDS011;15181;49.112;11.930;2022-07-05T01:44:02;7.32;;;6.70;;
27800;SDS011;15181;49.112;11.930;2022-07-05T01:46:30;6.93;;;6.43;;
27800;SDS011;15181;49.112;11.930;2022-07-05T01:49:03;8.18;;;7.00;;
27800;SDS011;15181;49.112;11.930;2022-07-05T01:51:32;7.70;;;6.80;;
27800;SDS011;15181;49.112;11.930;2022-07-05T01:54:02;7.53;;;6.72;;
27800;SDS011;15181;49.112;11.930;2022-07-05T01:56:29;6.85;;;6.35;;
27800;SDS011;15181;49.112;11.930;2022-07-05T01:58:58;7.30;;;6.57;;
27800;SDS011;15181;49.112;11.930;2022-07-05T02:01:32;7.32;;;6.72;;
27800;SDS011;15181;49.112;11.930;2022-07-05T02:04:00;7.10;;;6.60;;
27800;SDS011;15181;49.112;11.930;2022-07-05T02:06:28;7.07;;;6.57;;
27800;SDS011;15181;49.112;11.930;2022-07-05T02:08:56;7.03;;;6.50;;
27800;SDS011;15181;49.112;11.930;2022-07-05T02:11:22;7.35;;;6.60;;
27800;SDS011;15181;49.112;11.930;2022-07-05T02:13:49;7.20;;;6.70;;
27800;SDS011;15181;49.112;11.930;2022-07-05T02:16:17;7.18;;;6.50;;
27800;SDS011;15181;49.112;11.930;2022-07-05T02:18:47;7.20;;;6.60;;
27800;SDS011;15181;49.112;11.930;2022-07-05T02:21:14;7.60;;;6.90;;
27800;SDS011;15181;49.112;11.930;2022-07-05T02:23:41;7.10;;;6.60;;
27800;SDS011;15181;49.112;11.930;2022-07-05T02:26:08;7.25;;;6.65;;
27800;SDS011;15181;49.112;11.930;2022-07-05T02:28:35;7.05;;;6.45;;
27800;SDS011;15181;49.112;11.930;2022-07-05T02:31:02;7.03;;;6.53;;
27800;SDS011;15181;49.112;11.930;2022-07-05T02:33:30;7.45;;;6.85;;
27800;SDS011;15181;49.112;11.930;2022-07-05T02:35:56;7.47;;;6.57;;
27800;SDS011;15181;49.112;11.930;2022-07-05T02:38:24;7.38;;;6.68;;
27800;SDS011;15181;49.112;11.930;2022-07-05T02:40:50;7.28;;;6.68;;
27800;SDS011;15181;49.112;11.930;2022-07-05T02:43:17;7.28;;;6.72;;
27800;SDS011;15181;49.112;11.930;2022-07-05T02:45:44;7.55;;;6.88;;
27800;SDS011;15181;49.112;11.930;2022-07-05T02:48:11;7.50;;;6.90;;
27800;SDS011;15181;49.112;11.930;2022-07-05T02:50:39;7.32;;;6.82;;
27800;SDS011;15181;49.112;11.930;2022-07-05T02:53:06;7.88;;;7.28;;
27800;SDS011;15181;49.112;11.930;2022-07-05T02:55:33;7.70;;;7.15;;
27800;SDS011;15181;49.112;11.930;2022-07-05T02:57:59;8.02;;;6.90;;
27800;SDS011;15181;49.112;11.930;2022-07-05T03:00:26;7.85;;;7.20;;
27800;SDS011;15181;49.112;11.930;2022-07-05T03:02:53;7.68;;;6.95;;
27800;SDS011;15181;49.112;11.930;2022-07-05T03:05:20;8.00;;;7.30;;
27800;SDS011;15181;49.112;11.930;2022-07-05T03:07:48;7.22;;;6.63;;
27800;SDS011;15181;49.112;11.930;2022-07-05T03:10:15;7.22;;;6.72;;
27800;SDS011;15181;49.112;11.930;2022-07-05T03:12:42;7.32;;;6.82;;
27800;SDS011;15181;49.112;11.930;2022-07-05T03:15:09;7.57;;;6.97;;
27800;SDS011;15181;49.112;11.930;2022-07-05T03:17:36;7.30;;;6.80;;
27800;SDS011;15181;49.112;11.930;2022-07-05T03:20:03;7.90;;;7.30;;
27800;SDS011;15181;49.112;11.930;2022-07-05T03:22:31;7.50;;;7.00;;
27800;SDS011;15181;49.112;11.930;2022-07-05T03:24:59;8.15;;;7.35;;
27800;SDS011;15181;49.112;11.930;2022-07-05T03:27:26;8.20;;;7.40;;
27800;SDS011;15181;49.112;11.930;2022-07-05T03:29:52;7.60;;;7.10;;
27800;SDS011;15181;49.112;11.930;2022-07-05T03:32:19;8.13;;;7.47;;
27800;SDS011;15181;49.112;11.930;2022-07-05T03:34:46;7.90;;;7.28;;
27800;SDS011;15181;49.112;11.930;2022-07-05T03:37:13;7.97;;;7.28;;
27800;SDS011;15181;49.112;11.930;2022-07-05T03:39:40;7.88;;;7.28;;
27800;SDS011;15181;49.112;11.930;2022-07-05T03:42:08;7.53;;;7.03;;
27800;SDS011;15181;49.112;11.930;2022-07-05T03:44:34;8.60;;;7.65;;
27800;SDS011;15181;49.112;11.930;2022-07-05T03:47:01;8.20;;;7.60;;
27800;SDS011;15181;49.112;11.930;2022-07-05T03:49:28;8.45;;;7.75;;
27800;SDS011;15181;49.112;11.930;2022-07-05T03:51:55;8.38;;;7.78;;
27800;SDS011;15181;49.112;11.930;2022-07-05T03:54:22;8.48;;;7.57;;
27800;SDS011;15181;49.112;11.930;2022-07-05T03:56:49;8.45;;;7.75;;
27800;SDS011;15181;49.112;11.930;2022-07-05T03:59:17;8.30;;;7.70;;
27800;SDS011;15181;49.112;11.930;2022-07-05T04:01:44;8.40;;;7.80;;
27800;SDS011;15181;49.112;11.930;2022-07-05T04:04:10;8.50;;;7.90;;
27800;SDS011;15181;49.112;11.930;2022-07-05T04:06:37;8.90;;;8.10;;
27800;SDS011;15181;49.112;11.930;2022-07-05T04:09:04;8.55;;;7.95;;
27800;SDS011;15181;49.112;11.930;2022-07-05T04:11:31;7.97;;;7.38;;
27800;SDS011;15181;49.112;11.930;2022-07-05T04:13:58;7.88;;;7.38;;
27800;SDS011;15181;49.112;11.930;2022-07-05T04:16:26;8.52;;;7.82;;
27800;SDS011;15181;49.112;11.930;2022-07-05T04:18:53;8.95;;;7.90;;
27800;SDS011;15181;49.112;11.930;2022-07-05T04:21:20;8.38;;;7.60;;
27800;SDS011;15181;49.112;11.930;2022-07-05T04:23:46;8.45;;;7.70;;
27800;SDS011;15181;49.112;11.930;2022-07-05T04:26:13;8.32;;;7.72;;
27800;SDS011;15181;49.112;11.930;2022-07-05T04:28:40;8.98;;;8.23;;
27800;SDS011;15181;49.112;11.930;2022-07-05T04:31:07;8.20;;;7.60;;
27800;SDS011;15181;49.112;11.930;2022-07-05T04:33:35;8.90;;;8.10;;
27800;SDS011;15181;49.112;11.930;2022-07-05T04:36:02;8.20;;;7.60;;
27800;SDS011;15181;49.112;11.930;2022-07-05T04:38:30;8.70;;;8.10;;
27800;SDS011;15181;49.112;11.930;2022-07-05T04:40:56;8.40;;;7.90;;
27800;SDS011;15181;49.112;11.930;2022-07-05T04:43:23;9.20;;;8.50;;
27800;SDS011;15181;49.112;11.930;2022-07-05T04:45:50;8.45;;;7.85;;
27800;SDS011;15181;49.112;11.930;2022-07-05T04:48:17;9.40;;;8.70;;
27800;SDS011;15181;49.112;11.930;2022-07-05T04:50:45;8.98;;;8.18;;
27800;SDS011;15181;49.112;11.930;2022-07-05T04:53:12;9.02;;;8.18;;
27800;SDS011;15181;49.112;11.930;2022-07-05T04:55:39;8.40;;;7.80;;
27800;SDS011;15181;49.112;11.930;2022-07-05T04:58:06;8.60;;;8.00;;
27800;SDS011;15181;49.112;11.930;2022-07-05T05:00:32;9.13;;;8.43;;
27800;SDS011;15181;49.112;11.930;2022-07-05T05:02:59;8.48;;;7.80;;
27800;SDS011;15181;49.112;11.930;2022-07-05T05:05:26;9.00;;;8.23;;
27800;SDS011;15181;49.112;11.930;2022-07-05T05:07:54;8.85;;;8.10;;
27800;SDS011;15181;49.112;11.930;2022-07-05T05:10:21;8.73;;;8.13;;
27800;SDS011;15181;49.112;11.930;2022-07-05T05:12:49;9.00;;;8.18;;
27800;SDS011;15181;49.112;11.930;2022-07-05T05:15:16;8.70;;;7.93;;
27800;SDS011;15181;49.112;11.930;2022-07-05T05:17:43;8.60;;;8.00;;
27800;SDS011;15181;49.112;11.930;2022-07-05T05:20:11;8.80;;;8.10;;
27800;SDS011;15181;49.112;11.930;2022-07-05T05:22:39;9.85;;;8.95;;
27800;SDS011;15181;49.112;11.930;2022-07-05T05:25:09;8.15;;;7.63;;
27800;SDS011;15181;49.112;11.930;2022-07-05T05:27:40;8.23;;;7.63;;
27800;SDS011;15181;49.112;11.930;2022-07-05T05:30:07;8.32;;;7.72;;
27800;SDS011;15181;49.112;11.930;2022-07-05T05:32:35;8.50;;;7.90;;
27800;SDS011;15181;49.112;11.930;2022-07-05T05:35:02;8.30;;;7.57;;
27800;SDS011;15181;49.112;11.930;2022-07-05T05:37:30;8.50;;;7.90;;
27800;SDS011;15181;49.112;11.930;2022-07-05T05:39:57;8.68;;;7.97;;
27800;SDS011;15181;49.112;11.930;2022-07-05T05:42:25;8.32;;;7.72;;
27800;SDS011;15181;49.112;11.930;2022-07-05T05:44:52;8.80;;;8.10;;
27800;SDS011;15181;49.112;11.930;2022-07-05T05:47:18;8.52;;;7.82;;
27800;SDS011;15181;49.112;11.930;2022-07-05T05:49:45;8.20;;;7.60;;
27800;SDS011;15181;49.112;11.930;2022-07-05T05:52:12;8.38;;;7.68;;
27800;SDS011;15181;49.112;11.930;2022-07-05T05:54:39;8.43;;;7.82;;
27800;SDS011;15181;49.112;11.930;2022-07-05T05:57:06;8.40;;;7.70;;
27800;SDS011;15181;49.112;11.930;2022-07-05T05:59:34;7.70;;;7.20;;
27800;SDS011;15181;49.112;11.930;2022-07-05T06:02:01;9.65;;;7.57;;
27800;SDS011;15181;49.112;11.930;2022-07-05T06:04:28;7.97;;;7.38;;
27800;SDS011;15181;49.112;11.930;2022-07-05T06:06:54;8.32;;;7.60;;
27800;SDS011;15181;49.112;11.930;2022-07-05T06:09:21;7.95;;;7.40;;
27800;SDS011;15181;49.112;11.930;2022-07-05T06:11:48;8.10;;;7.30;;
27800;SDS011;15181;49.112;11.930;2022-07-05T06:14:15;7.28;;;6.78;;
27800;SDS011;15181;49.112;11.930;2022-07-05T06:16:43;7.95;;;7.30;;
27800;SDS011;15181;49.112;11.930;2022-07-05T06:19:10;7.93;;;7.32;;
27800;SDS011;15181;49.112;11.930;2022-07-05T06:21:37;8.13;;;7.53;;
27800;SDS011;15181;49.112;11.930;2022-07-05T06:24:04;8.50;;;7.90;;
27800;SDS011;15181;49.112;11.930;2022-07-05T06:26:31;8.20;;;7.50;;
27800;SDS011;15181;49.112;11.930;2022-07-05T06:28:58;8.52;;;7.75;;
27800;SDS011;15181;49.112;11.930;2022-07-05T06:31:24;8.10;;;7.50;;
27800;SDS011;15181;49.112;11.930;2022-07-05T06:33:53;8.40;;;7.70;;
27800;SDS011;15181;49.112;11.930;2022-07-05T06:36:19;8.25;;;7.72;;
27800;SDS011;15181;49.112;11.930;2022-07-05T06:38:46;8.10;;;7.60;;
27800;SDS011;15181;49.112;11.930;2022-07-05T06:41:13;8.38;;;7.68;;
27800;SDS011;15181;49.112;11.930;2022-07-05T06:43:40;8.60;;;7.90;;
27800;SDS011;15181;49.112;11.930;2022-07-05T06:46:07;8.10;;;7.50;;
27800;SDS011;15181;49.112;11.930;2022-07-05T06:48:33;8.32;;;7.57;;
27800;SDS011;15181;49.112;11.930;2022-07-05T06:51:02;8.20;;;7.50;;
27800;SDS011;15181;49.112;11.930;2022-07-05T06:53:29;12.18;;;8.07;;
27800;SDS011;15181;49.112;11.930;2022-07-05T06:55:56;8.38;;;7.68;;
27800;SDS011;15181;49.112;11.930;2022-07-05T06:58:23;8.88;;;8.02;;
27800;SDS011;15181;49.112;11.930;2022-07-05T07:00:50;8.05;;;7.55;;
27800;SDS011;15181;49.112;11.930;2022-07-05T07:03:17;8.57;;;7.93;;
27800;SDS011;15181;49.112;11.930;2022-07-05T07:05:44;10.52;;;8.25;;
27800;SDS011;15181;49.112;11.930;2022-07-05T07:08:12;8.68;;;7.97;;
27800;SDS011;15181;49.112;11.930;2022-07-05T07:10:56;8.50;;;7.85;;
27800;SDS011;15181;49.112;11.930;2022-07-05T07:13:23;8.38;;;7.68;;
27800;SDS011;15181;49.112;11.930;2022-07-05T07:15:50;8.57;;;7.93;;
27800;SDS011;15181;49.112;11.930;2022-07-05T07:18:17;8.20;;;7.57;;
27800;SDS011;15181;49.112;11.930;2022-07-05T07:20:43;8.45;;;7.70;;
27800;SDS011;15181;49.112;11.930;2022-07-05T07:23:12;8.32;;;7.72;;
27800;SDS011;15181;49.112;11.930;2022-07-05T07:25:41;8.68;;;8.02;;
27800;SDS011;15181;49.112;11.930;2022-07-05T07:28:08;8.50;;;7.80;;
27800;SDS011;15181;49.112;11.930;2022-07-05T07:30:35;8.35;;;7.65;;
27800;SDS011;15181;49.112;11.930;2022-07-05T07:33:03;8.30;;;7.60;;
27800;SDS011;15181;49.112;11.930;2022-07-05T07:35:29;8.20;;;7.60;;
27800;SDS011;15181;49.112;11.930;2022-07-05T07:37:56;8.20;;;7.60;;
27800;SDS011;15181;49.112;11.930;2022-07-05T07:40:24;8.40;;;7.70;;
27800;SDS011;15181;49.112;11.930;2022-07-05T07:42:51;8.48;;;7.75;;
27800;SDS011;15181;49.112;11.930;2022-07-05T07:45:18;8.18;;;7.60;;
27800;SDS011;15181;49.112;11.930;2022-07-05T07:47:45;8.82;;;8.15;;
27800;SDS011;15181;49.112;11.930;2022-07-05T07:50:12;8.73;;;8.00;;
27800;SDS011;15181;49.112;11.930;2022-07-05T07:52:39;8.75;;;8.05;;
27800;SDS011;15181;49.112;11.930;2022-07-05T07:55:06;8.88;;;8.00;;
27800;SDS011;15181;49.112;11.930;2022-07-05T07:57:35;8.48;;;7.80;;
27800;SDS011;15181;49.112;11.930;2022-07-05T08:00:02;8.63;;;8.02;;
27800;SDS011;15181;49.112;11.930;2022-07-05T08:02:30;8.75;;;8.05;;
27800;SDS011;15181;49.112;11.930;2022-07-05T08:04:57;8.55;;;7.95;;
27800;SDS011;15181;49.112;11.930;2022-07-05T08:07:24;9.52;;;8.30;;
27800;SDS011;15181;49.112;11.930;2022-07-05T08:09:51;8.73;;;7.90;;
27800;SDS011;15181;49.112;11.930;2022-07-05T08:12:18;8.55;;;7.80;;
27800;SDS011;15181;49.112;11.930;2022-07-05T08:14:47;8.52;;;7.82;;
27800;SDS011;15181;49.112;11.930;2022-07-05T08:17:14;8.20;;;7.70;;
27800;SDS011;15181;49.112;11.930;2022-07-05T08:19:41;8.60;;;7.80;;
27800;SDS011;15181;49.112;11.930;2022-07-05T08:22:26;8.65;;;8.05;;
27800;SDS011;15181;49.112;11.930;2022-07-05T08:24:52;8.40;;;7.80;;
27800;SDS011;15181;49.112;11.930;2022-07-05T08:27:19;8.48;;;7.85;;
27800;SDS011;15181;49.112;11.930;2022-07-05T08:29:47;8.43;;;7.72;;
27800;SDS011;15181;49.112;11.930;2022-07-05T08:32:14;9.02;;;8.32;;
27800;SDS011;15181;49.112;11.930;2022-07-05T08:34:41;8.00;;;7.40;;
27800;SDS011;15181;49.112;11.930;2022-07-05T08:37:08;9.10;;;8.32;;
27800;SDS011;15181;49.112;11.930;2022-07-05T08:39:35;8.23;;;7.63;;
27800;SDS011;15181;49.112;11.930;2022-07-05T08:42:02;8.90;;;8.10;;
27800;SDS011;15181;49.112;11.930;2022-07-05T08:44:34;8.63;;;7.78;;
27800;SDS011;15181;49.112;11.930;2022-07-05T08:47:07;9.18;;;7.78;;
27800;SDS011;15181;49.112;11.930;2022-07-05T08:49:35;7.95;;;7.30;;
27800;SDS011;15181;49.112;11.930;2022-07-05T08:52:05;8.18;;;7.38;;
27800;SDS011;15181;49.112;11.930;2022-07-05T08:54:36;10.27;;;7.20;;
27800;SDS011;15181;49.112;11.930;2022-07-05T08:57:04;9.75;;;7.53;;
27800;SDS011;15181;49.112;11.930;2022-07-05T08:59:31;9.57;;;7.97;;
27800;SDS011;15181;49.112;11.930;2022-07-05T09:01:58;8.95;;;7.78;;
27800;SDS011;15181;49.112;11.930;2022-07-05T09:04:28;8.38;;;7.78;;
27800;SDS011;15181;49.112;11.930;2022-07-05T09:06:57;7.82;;;7.30;;
27800;SDS011;15181;49.112;11.930;2022-07-05T09:09:29;8.10;;;7.60;;
27800;SDS011;15181;49.112;11.930;2022-07-05T09:11:58;8.30;;;7.70;;
27800;SDS011;15181;49.112;11.930;2022-07-05T09:14:25;8.85;;;8.00;;
27800;SDS011;15181;49.112;11.930;2022-07-05T09:16:52;8.30;;;7.50;;
27800;SDS011;15181;49.112;11.930;2022-07-05T09:19:20;7.93;;;7.32;;
27800;SDS011;15181;49.112;11.930;2022-07-05T09:21:48;8.48;;;7.75;;
27800;SDS011;15181;49.112;11.930;2022-07-05T09:24:28;7.80;;;7.20;;
27800;SDS011;15181;49.112;11.930;2022-07-05T09:27:01;7.93;;;7.35;;
27800;SDS011;15181;49.112;11.930;2022-07-05T09:29:29;7.57;;;7.05;;
27800;SDS011;15181;49.112;11.930;2022-07-05T09:31:56;7.90;;;7.35;;
27800;SDS011;15181;49.112;11.930;2022-07-05T09:34:23;9.13;;;7.28;;
27800;SDS011;15181;49.112;11.930;2022-07-05T09:36:52;8.20;;;7.60;;
27800;SDS011;15181;49.112;11.930;2022-07-05T09:42:16;8.20;;;7.60;;
27800;SDS011;15181;49.112;11.930;2022-07-05T09:44:45;8.57;;;7.72;;
27800;SDS011;15181;49.112;11.930;2022-07-05T09:47:12;8.40;;;7.60;;
27800;SDS011;15181;49.112;11.930;2022-07-05T09:49:41;8.10;;;7.50;;
27800;SDS011;15181;49.112;11.930;2022-07-05T09:52:11;8.32;;;7.72;;
27800;SDS011;15181;49.112;11.930;2022-07-05T09:54:59;8.02;;;7.32;;
27800;SDS011;15181;49.112;11.930;2022-07-05T09:57:28;8.55;;;7.80;;
27800;SDS011;15181;49.112;11.930;2022-07-05T09:59:57;8.13;;;7.53;;
27800;SDS011;15181;49.112;11.930;2022-07-05T10:02:36;8.20;;;7.70;;
27800;SDS011;15181;49.112;11.930;2022-07-05T10:05:07;7.50;;;6.90;;
27800;SDS011;15181;49.112;11.930;2022-07-05T10:07:36;7.68;;;7.18;;
27800;SDS011;15181;49.112;11.930;2022-07-05T10:10:06;8.02;;;7.32;;
27800;SDS011;15181;49.112;11.930;2022-07-05T10:12:35;7.50;;;6.90;;
27800;SDS011;15181;49.112;11.930;2022-07-05T10:15:03;7.68;;;7.15;;
27800;SDS011;15181;49.112;11.930;2022-07-05T10:17:32;7.70;;;7.00;;
27800;SDS011;15181;49.112;11.930;2022-07-05T10:20:02;7.50;;;6.90;;
27800;SDS011;15181;49.112;11.930;2022-07-05T10:22:31;7.80;;;7.30;;
27800;SDS011;15181;49.112;11.930;2022-07-05T10:25:00;8.43;;;7.63;;
27800;SDS011;15181;49.112;11.930;2022-07-05T10:27:27;8.23;;;7.35;;
27800;SDS011;15181;49.112;11.930;2022-07-05T10:29:56;8.07;;;7.38;;
27800;SDS011;15181;49.112;11.930;2022-07-05T10:32:24;7.97;;;7.35;;
27800;SDS011;15181;49.112;11.930;2022-07-05T10:34:53;7.63;;;7.00;;
27800;SDS011;15181;49.112;11.930;2022-07-05T10:37:24;7.82;;;7.15;;
27800;SDS011;15181;49.112;11.930;2022-07-05T10:39:53;7.20;;;6.70;;
27800;SDS011;15181;49.112;11.930;2022-07-05T10:42:22;7.78;;;7.00;;
27800;SDS011;15181;49.112;11.930;2022-07-05T10:44:51;7.57;;;6.88;;
27800;SDS011;15181;49.112;11.930;2022-07-05T10:47:18;8.05;;;7.35;;
27800;SDS011;15181;49.112;11.930;2022-07-05T10:49:58;7.70;;;7.10;;
27800;SDS011;15181;49.112;11.930;2022-07-05T10:52:27;7.80;;;7.20;;
27800;SDS011;15181;49.112;11.930;2022-07-05T11:00:46;7.78;;;7.28;;
27800;SDS011;15181;49.112;11.930;2022-07-05T11:06:00;7.20;;;6.60;;
27800;SDS011;15181;49.112;11.930;2022-07-05T11:08:27;7.13;;;6.63;;
27800;SDS011;15181;49.112;11.930;2022-07-05T11:11:10;7.35;;;6.63;;
27800;SDS011;15181;49.112;11.930;2022-07-05T11:13:41;7.35;;;6.85;;
27800;SDS011;15181;49.112;11.930;2022-07-05T11:16:21;7.20;;;6.70;;
27800;SDS011;15181;49.112;11.930;2022-07-05T11:18:49;7.50;;;6.90;;
27800;SDS011;15181;49.112;11.930;2022-07-05T11:21:17;7.38;;;6.78;;
27800;SDS011;15181;49.112;11.930;2022-07-05T11:23:44;7.20;;;6.70;;
27800;SDS011;15181;49.112;11.930;2022-07-05T11:26:12;7.63;;;6.93;;
27800;SDS011;15181;49.112;11.930;2022-07-05T11:28:43;7.38;;;6.78;;
27800;SDS011;15181;49.112;11.930;2022-07-05T11:31:12;7.10;;;6.60;;
27800;SDS011;15181;49.112;11.930;2022-07-05T11:34:00;7.38;;;6.88;;
27800;SDS011;15181;49.112;11.930;2022-07-05T11:36:38;9.52;;;6.60;;
27800;SDS011;15181;49.112;11.930;2022-07-05T11:39:15;7.40;;;6.90;;
27800;SDS011;15181;49.112;11.930;2022-07-05T11:41:45;7.30;;;6.80;;
27800;SDS011;15181;49.112;11.930;2022-07-05T11:44:15;7.07;;;6.57;;
27800;SDS011;15181;49.112;11.930;2022-07-05T11:46:42;7.25;;;6.75;;
27800;SDS011;15181;49.112;11.930;2022-07-05T11:49:09;8.82;;;6.60;;
27800;SDS011;15181;49.112;11.930;2022-07-05T11:51:36;7.85;;;6.97;;
27800;SDS011;15181;49.112;11.930;2022-07-05T11:54:03;7.82;;;7.10;;
27800;SDS011;15181;49.112;11.930;2022-07-05T11:56:34;7.68;;;7.15;;
27800;SDS011;15181;49.112;11.930;2022-07-05T12:01:45;7.75;;;7.15;;
27800;SDS011;15181;49.112;11.930;2022-07-05T12:04:20;7.47;;;6.97;;
27800;SDS011;15181;49.112;11.930;2022-07-05T12:06:47;7.47;;;6.88;;
27800;SDS011;15181;49.112;11.930;2022-07-05T12:09:15;7.60;;;6.90;;
27800;SDS011;15181;49.112;11.930;2022-07-05T12:11:49;7.25;;;6.75;;
27800;SDS011;15181;49.112;11.930;2022-07-05T12:14:35;7.60;;;6.95;;
27800;SDS011;15181;49.112;11.930;2022-07-05T12:17:11;7.57;;;7.03;;
27800;SDS011;15181;49.112;11.930;2022-07-05T12:19:39;7.00;;;6.50;;
27800;SDS011;15181;49.112;11.930;2022-07-05T12:22:06;7.13;;;6.63;;
27800;SDS011;15181;49.112;11.930;2022-07-05T12:24:33;7.20;;;6.60;;
27800;SDS011;15181;49.112;11.930;2022-07-05T12:27:01;7.22;;;6.22;;
27800;SDS011;15181;49.112;11.930;2022-07-05T12:29:28;7.18;;;6.68;;
27800;SDS011;15181;49.112;11.930;2022-07-05T12:32:00;7.30;;;6.70;;
27800;SDS011;15181;49.112;11.930;2022-07-05T12:34:28;7.50;;;6.93;;
27800;SDS011;15181;49.112;11.930;2022-07-05T12:36:55;7.20;;;6.70;;
27800;SDS011;15181;49.112;11.930;2022-07-05T12:39:23;7.53;;;7.03;;
27800;SDS011;15181;49.112;11.930;2022-07-05T12:41:50;7.05;;;6.55;;
27800;SDS011;15181;49.112;11.930;2022-07-05T12:44:20;7.78;;;7.18;;
27800;SDS011;15181;49.112;11.930;2022-07-05T12:46:47;7.22;;;6.60;;
27800;SDS011;15181;49.112;11.930;2022-07-05T12:49:17;7.40;;;6.80;;
27800;SDS011;15181;49.112;11.930;2022-07-05T12:51:45;7.30;;;6.70;;
27800;SDS011;15181;49.112;11.930;2022-07-05T12:54:18;7.20;;;6.70;;
27800;SDS011;15181;49.112;11.930;2022-07-05T12:57:03;7.30;;;6.80;;
27800;SDS011;15181;49.112;11.930;2022-07-05T13:02:34;6.95;;;6.45;;
27800;SDS011;15181;49.112;11.930;2022-07-05T13:05:04;7.60;;;7.00;;
27800;SDS011;15181;49.112;11.930;2022-07-05T13:07:33;7.30;;;6.80;;
27800;SDS011;15181;49.112;11.930;2022-07-05T13:10:12;7.10;;;6.60;;
27800;SDS011;15181;49.112;11.930;2022-07-05T13:12:43;7.15;;;6.65;;
27800;SDS011;15181;49.112;11.930;2022-07-05T13:15:10;10.93;;;7.35;;
27800;SDS011;15181;49.112;11.930;2022-07-05T13:17:37;6.85;;;6.25;;
27800;SDS011;15181;49.112;11.930;2022-07-05T13:20:07;7.28;;;6.68;;
27800;SDS011;15181;49.112;11.930;2022-07-05T13:22:34;7.00;;;6.50;;
27800;SDS011;15181;49.112;11.930;2022-07-05T13:25:01;7.35;;;6.75;;
27800;SDS011;15181;49.112;11.930;2022-07-05T13:27:28;7.20;;;6.70;;
27800;SDS011;15181;49.112;11.930;2022-07-05T13:29:55;7.10;;;6.60;;
27800;SDS011;15181;49.112;11.930;2022-07-05T13:32:22;7.53;;;6.90;;
27800;SDS011;15181;49.112;11.930;2022-07-05T13:34:49;7.32;;;6.68;;
27800;SDS011;15181;49.112;11.930;2022-07-05T13:37:17;7.18;;;6.68;;
27800;SDS011;15181;49.112;11.930;2022-07-05T13:39:44;7.60;;;7.10;;
27800;SDS011;15181;49.112;11.930;2022-07-05T13:42:11;7.30;;;6.80;;
27800;SDS011;15181;49.112;11.930;2022-07-05T13:44:38;7.10;;;6.50;;
27800;SDS011;15181;49.112;11.930;2022-07-05T13:47:05;7.85;;;7.10;;
27800;SDS011;15181;49.112;11.930;2022-07-05T13:49:32;7.40;;;6.90;;
27800;SDS011;15181;49.112;11.930;2022-07-05T13:51:59;7.90;;;7.20;;
27800;SDS011;15181;49.112;11.930;2022-07-05T13:54:28;7.60;;;7.00;;
27800;SDS011;15181;49.112;11.930;2022-07-05T13:56:55;7.30;;;6.70;;
27800;SDS011;15181;49.112;11.930;2022-07-05T13:59:22;7.18;;;6.68;;
27800;SDS011;15181;49.112;11.930;2022-07-05T14:01:49;7.82;;;7.22;;
27800;SDS011;15181;49.112;11.930;2022-07-05T14:04:15;7.55;;;6.85;;
27800;SDS011;15181;49.112;11.930;2022-07-05T14:06:42;7.63;;;6.90;;
27800;SDS011;15181;49.112;11.930;2022-07-05T14:09:11;7.50;;;6.70;;
27800;SDS011;15181;49.112;11.930;2022-07-05T14:11:39;7.40;;;6.80;;
27800;SDS011;15181;49.112;11.930;2022-07-05T14:14:06;7.75;;;7.20;;
27800;SDS011;15181;49.112;11.930;2022-07-05T14:16:35;14.38;;;8.30;;
27800;SDS011;15181;49.112;11.930;2022-07-05T14:19:02;7.30;;;6.70;;
27800;SDS011;15181;49.112;11.930;2022-07-05T14:21:28;7.60;;;7.00;;
27800;SDS011;15181;49.112;11.930;2022-07-05T14:23:55;7.50;;;7.00;;
27800;SDS011;15181;49.112;11.930;2022-07-05T14:26:23;7.22;;;6.60;;
27800;SDS011;15181;49.112;11.930;2022-07-05T14:28:53;7.47;;;6.97;;
27800;SDS011;15181;49.112;11.930;2022-07-05T14:31:20;7.70;;;7.10;;
27800;SDS011;15181;49.112;11.930;2022-07-05T14:33:48;7.72;;;6.93;;
27800;SDS011;15181;49.112;11.930;2022-07-05T14:36:15;7.95;;;7.25;;
27800;SDS011;15181;49.112;11.930;2022-07-05T14:38:44;7.47;;;6.80;;
27800;SDS011;15181;49.112;11.930;2022-07-05T14:41:11;7.35;;;6.85;;
27800;SDS011;15181;49.112;11.930;2022-07-05T14:43:38;7.75;;;7.22;;
27800;SDS011;15181;49.112;11.930;2022-07-05T14:46:06;8.02;;;7.32;;
27800;SDS011;15181;49.112;11.930;2022-07-05T14:48:37;7.85;;;7.30;;
27800;SDS011;15181;49.112;11.930;2022-07-05T14:51:03;8.07;;;7.47;;
27800;SDS011;15181;49.112;11.930;2022-07-05T14:53:30;7.95;;;7.35;;
27800;SDS011;15181;49.112;11.930;2022-07-05T14:55:57;8.35;;;7.07;;